Time;durP1;ratioP1;P1;durP2;ratioP2;P2;SDS_P1;SDS_P2;PMS_P1;PMS_P2;Temp;Humidity;BMP_temperature;BMP_pressure;BME280_temperature;BME280_humidity;BME280_pressure;Samples;Min_cycle;Max_cycle;Signal;HPM_P1;HPM_P2
2022/01/12 00:01:21;;;;;;;19.83;12.10;;;10.00;85.30;;;;;;5052116;28;20060;-75
2022/01/12 00:03:47;;;;;;;19.52;12.27;;;10.00;85.10;;;;;;5054301;28;20036;-75
2022/01/12 00:06:13;;;;;;;21.73;12.27;;;9.90;85.20;;;;;;5037148;28;20510;-75
2022/01/12 00:08:40;;;;;;;21.95;12.15;;;9.90;85.10;;;;;;5041856;28;20032;-75
2022/01/12 00:11:06;;;;;;;21.13;12.02;;;9.90;85.20;;;;;;5037381;28;20111;-75
2022/01/12 00:13:34;;;;;;;26.33;12.32;;;9.90;85.50;;;;;;5038597;28;20025;-75
2022/01/12 00:16:02;;;;;;;21.20;11.20;;;10.00;85.10;;;;;;5053537;28;20499;-75
2022/01/12 00:18:28;;;;;;;21.10;12.48;;;10.00;85.10;;;;;;5038304;28;20025;-75
2022/01/12 00:20:54;;;;;;;23.42;11.18;;;10.00;85.10;;;;;;5053520;28;20034;-75
2022/01/12 00:23:21;;;;;;;19.48;12.55;;;10.00;85.40;;;;;;5038069;28;20432;-75
2022/01/12 00:26:09;;;;;;;20.38;11.93;;;10.00;85.40;;;;;;5069655;28;20021;-75
2022/01/12 00:34:08;;;;;;;20.55;12.35;;;9.90;85.80;;;;;;5038165;28;20049;-75
2022/01/12 00:36:34;;;;;;;25.90;13.32;;;9.90;85.70;;;;;;5037924;28;20100;-75
2022/01/12 00:39:02;;;;;;;28.77;11.95;;;9.90;85.80;;;;;;5037983;28;20029;-75
2022/01/12 00:41:28;;;;;;;20.15;11.52;;;9.90;85.90;;;;;;5069483;28;20040;-75
2022/01/12 00:44:01;;;;;;;25.17;11.77;;;9.90;85.70;;;;;;5069739;28;20028;-75
2022/01/12 00:46:29;;;;;;;20.73;12.30;;;10.00;85.80;;;;;;5053137;28;20064;-75
2022/01/12 00:48:56;;;;;;;25.15;13.25;;;10.00;85.80;;;;;;5037512;28;20089;-75
2022/01/12 00:51:26;;;;;;;18.10;11.65;;;9.90;85.80;;;;;;5037783;28;20026;-75
2022/01/12 00:53:53;;;;;;;24.05;12.27;;;10.00;85.70;;;;;;5037887;28;20026;-75
2022/01/12 00:56:19;;;;;;;19.90;12.05;;;9.90;85.70;;;;;;5037271;28;20071;-75
2022/01/12 00:58:44;;;;;;;23.90;11.85;;;9.90;85.80;;;;;;5037610;28;20037;-75
2022/01/12 01:01:10;;;;;;;22.42;12.05;;;9.90;85.80;;;;;;5045979;28;20029;-75
2022/01/12 01:03:36;;;;;;;21.33;12.70;;;9.90;85.90;;;;;;5077459;28;20025;-75
2022/01/12 01:06:02;;;;;;;25.75;11.80;;;9.90;86.00;;;;;;5061992;28;20029;-75
2022/01/12 01:08:27;;;;;;;28.25;13.07;;;9.90;86.10;;;;;;5052787;28;20029;-75
2022/01/12 01:10:56;;;;;;;22.42;11.95;;;9.90;86.10;;;;;;5037442;28;20036;-74
2022/01/12 01:13:27;;;;;;;23.77;13.90;;;9.90;86.10;;;;;;5052694;28;20112;-75
2022/01/12 01:26:36;;;;;;;22.77;12.32;;;9.90;86.20;;;;;;5037195;28;20107;-75
2022/01/12 01:29:03;;;;;;;26.42;13.77;;;9.90;86.10;;;;;;5036889;28;20430;-75
2022/01/12 01:31:31;;;;;;;27.35;13.02;;;9.80;85.90;;;;;;5037021;28;20109;-75
2022/01/12 01:34:07;;;;;;;31.10;15.40;;;9.80;86.30;;;;;;5036620;28;20028;-75
2022/01/12 01:36:39;;;;;;;27.35;13.85;;;9.80;86.20;;;;;;5036748;28;20034;-75
2022/01/12 01:39:10;;;;;;;32.85;15.38;;;9.80;86.10;;;;;;5036894;28;20438;-74
2022/01/12 01:41:39;;;;;;;24.17;13.52;;;9.80;86.40;;;;;;5037518;28;20029;-75
2022/01/12 01:55:09;;;;;;;23.75;12.57;;;9.70;86.70;;;;;;5036451;28;20057;-74
2022/01/12 01:57:35;;;;;;;22.98;13.18;;;9.70;86.60;;;;;;5036462;28;20021;-75
2022/01/12 02:00:05;;;;;;;28.85;12.65;;;9.80;86.60;;;;;;5035337;28;20585;-75
2022/01/12 02:02:31;;;;;;;26.95;14.48;;;9.80;86.40;;;;;;5036545;28;20026;-75
2022/01/12 02:04:57;;;;;;;23.83;12.70;;;9.80;86.60;;;;;;5036129;28;20121;-75
2022/01/12 02:07:23;;;;;;;26.25;11.52;;;9.80;86.40;;;;;;5051521;28;20076;-75
2022/01/12 02:09:48;;;;;;;27.90;14.00;;;9.80;86.00;;;;;;5035931;28;20033;-75
2022/01/12 02:12:23;;;;;;;26.25;12.38;;;9.80;86.50;;;;;;5036281;28;20033;-75
2022/01/12 02:14:48;;;;;;;23.65;12.55;;;9.90;86.60;;;;;;5036329;28;20033;-75
2022/01/12 02:17:19;;;;;;;20.55;10.73;;;9.80;86.40;;;;;;5036229;28;20026;-75
2022/01/12 02:36:26;;;;;;;19.65;8.10;;;9.70;86.90;;;;;;5035874;28;20025;-75
2022/01/12 02:41:38;;;;;;;16.42;6.93;;;9.70;86.70;;;;;;5036530;28;20033;-74
2022/01/12 02:55:05;;;;;;;17.67;7.00;;;9.70;86.50;;;;;;5035743;28;20061;-74
2022/01/12 02:57:31;;;;;;;14.90;7.13;;;9.70;86.30;;;;;;5034985;28;20029;-75
2022/01/12 03:00:10;;;;;;;17.48;8.23;;;9.70;86.40;;;;;;5035544;28;20463;-75
2022/01/12 03:02:39;;;;;;;18.35;7.80;;;9.70;86.50;;;;;;5035124;28;20519;-75
2022/01/12 03:07:41;;;;;;;17.13;7.22;;;9.80;86.10;;;;;;5035511;28;20034;-75
2022/01/12 03:10:09;;;;;;;19.02;7.97;;;9.70;86.50;;;;;;5034993;28;20030;-75
2022/01/12 03:12:43;;;;;;;18.52;7.88;;;9.80;86.40;;;;;;5067172;28;20030;-75
2022/01/12 03:15:09;;;;;;;14.52;7.65;;;9.80;86.40;;;;;;5049294;28;20022;-75
2022/01/12 03:17:36;;;;;;;15.77;7.53;;;9.80;86.30;;;;;;5035005;28;20595;-75
2022/01/12 03:20:04;;;;;;;14.82;7.80;;;9.80;86.30;;;;;;5035036;28;20084;-75
2022/01/12 03:22:30;;;;;;;20.23;8.20;;;9.90;86.40;;;;;;5034819;28;20052;-75
2022/01/12 03:24:55;;;;;;;15.85;7.80;;;9.80;86.20;;;;;;5034961;28;20025;-75
2022/01/12 03:27:24;;;;;;;18.45;8.07;;;9.70;86.60;;;;;;5034960;28;20040;-75
2022/01/12 03:29:54;;;;;;;22.85;9.40;;;9.80;86.60;;;;;;5035108;28;20041;-75
2022/01/12 03:32:26;;;;;;;22.42;9.63;;;9.80;86.50;;;;;;5048979;28;20097;-75
2022/01/12 03:34:57;;;;;;;20.77;9.02;;;9.70;86.20;;;;;;5034670;28;20021;-75
2022/01/12 03:37:42;;;;;;;23.05;9.90;;;9.70;86.30;;;;;;5086769;28;20033;-74
2022/01/12 03:40:09;;;;;;;19.15;8.02;;;9.70;86.80;;;;;;5054885;28;20118;-75
2022/01/12 03:42:35;;;;;;;17.70;7.68;;;9.60;86.80;;;;;;5062051;28;20052;-74
2022/01/12 03:45:01;;;;;;;19.38;8.25;;;9.50;86.60;;;;;;5065453;28;20444;-75
2022/01/12 03:47:26;;;;;;;17.17;8.65;;;9.30;86.90;;;;;;5039062;28;20403;-75
2022/01/12 03:49:52;;;;;;;21.50;7.47;;;9.20;87.90;;;;;;5038711;28;20033;-75
2022/01/12 03:52:18;;;;;;;20.77;8.48;;;9.20;87.70;;;;;;5057228;28;20033;-75
2022/01/12 03:54:43;;;;;;;18.45;7.30;;;9.20;87.80;;;;;;5058822;28;20021;-74
2022/01/12 03:57:09;;;;;;;15.88;6.70;;;9.20;88.00;;;;;;5048381;28;20029;-75
2022/01/12 03:59:35;;;;;;;15.85;8.10;;;9.20;87.80;;;;;;5054173;28;20033;-75
2022/01/12 04:02:00;;;;;;;22.20;8.80;;;9.20;88.00;;;;;;5054300;28;20418;-75
2022/01/12 04:04:37;;;;;;;17.75;7.80;;;9.30;88.00;;;;;;5038584;28;20034;-75
2022/01/12 04:09:48;;;;;;;13.93;6.90;;;9.30;87.30;;;;;;5038572;28;20102;-75
2022/01/12 04:12:14;;;;;;;15.02;6.63;;;9.40;87.50;;;;;;5038588;28;20104;-75
2022/01/12 04:14:40;;;;;;;16.30;7.07;;;9.40;87.20;;;;;;5052572;28;20104;-74
2022/01/12 04:17:06;;;;;;;13.85;7.07;;;9.30;87.70;;;;;;5038353;28;20080;-75
2022/01/12 04:19:32;;;;;;;17.88;8.68;;;9.40;87.90;;;;;;5036858;28;20035;-75
2022/01/12 04:22:07;;;;;;;18.33;8.10;;;9.30;87.50;;;;;;5038694;28;20487;-75
2022/01/12 04:24:33;;;;;;;24.05;9.65;;;9.30;87.70;;;;;;5070649;28;20079;-75
2022/01/12 04:26:59;;;;;;;20.42;7.85;;;9.30;87.80;;;;;;5045826;28;20039;-75
2022/01/12 04:29:25;;;;;;;23.65;9.52;;;9.40;87.80;;;;;;5036525;28;20464;-74
2022/01/12 04:31:50;;;;;;;23.45;9.50;;;9.40;87.60;;;;;;5036919;28;20061;-75
2022/01/12 04:34:16;;;;;;;20.33;8.73;;;9.50;87.40;;;;;;5038095;28;20024;-74
2022/01/12 04:36:42;;;;;;;22.73;9.00;;;9.60;87.30;;;;;;5038097;28;20025;-75
2022/01/12 04:39:07;;;;;;;22.30;9.13;;;9.70;87.10;;;;;;5053499;28;20029;-75
2022/01/12 04:41:33;;;;;;;18.67;8.27;;;9.70;86.90;;;;;;5038080;28;20104;-75
2022/01/12 04:44:01;;;;;;;18.30;8.15;;;9.70;86.90;;;;;;5090277;28;20024;-75
2022/01/12 04:46:38;;;;;;;22.70;10.55;;;9.60;86.70;;;;;;5089907;28;20033;-75
2022/01/12 04:49:20;;;;;;;27.33;10.23;;;9.60;87.10;;;;;;5037671;28;20036;-75
2022/01/12 04:51:45;;;;;;;24.85;9.38;;;9.70;87.00;;;;;;5036375;28;20026;-75
2022/01/12 04:54:11;;;;;;;22.50;9.50;;;9.70;86.70;;;;;;5037955;28;20121;-75
2022/01/12 04:56:37;;;;;;;29.55;10.85;;;9.70;86.70;;;;;;5035507;28;20117;-75
2022/01/12 04:59:02;;;;;;;26.42;9.77;;;9.80;86.70;;;;;;5036381;28;20480;-75
2022/01/12 05:01:35;;;;;;;19.98;8.40;;;9.70;86.20;;;;;;5037404;28;20084;-75
2022/01/12 05:06:54;;;;;;;21.63;9.95;;;9.60;86.00;;;;;;5037769;28;20175;-75
2022/01/12 05:09:47;;;;;;;18.38;8.48;;;9.70;86.60;;;;;;5037498;28;20097;-75
2022/01/12 05:15:06;;;;;;;21.10;8.93;;;9.70;86.50;;;;;;5037386;28;20040;-75
2022/01/12 05:17:33;;;;;;;22.17;9.27;;;9.60;86.60;;;;;;5037217;28;20026;-75
2022/01/12 05:19:58;;;;;;;20.73;8.90;;;9.60;87.10;;;;;;5069216;28;20041;-75
2022/01/12 05:22:24;;;;;;;21.70;9.50;;;9.60;86.90;;;;;;5052365;28;20025;-75
2022/01/12 05:24:50;;;;;;;25.20;10.90;;;9.50;87.10;;;;;;5037227;28;20017;-75
2022/01/12 05:27:16;;;;;;;23.10;10.25;;;9.60;87.30;;;;;;5037076;28;20033;-74
2022/01/12 05:29:41;;;;;;;24.58;9.82;;;9.70;87.20;;;;;;5036911;28;20164;-75
2022/01/12 05:32:10;;;;;;;22.90;10.07;;;9.70;86.80;;;;;;5037170;28;20025;-75
2022/01/12 05:34:37;;;;;;;21.63;10.77;;;9.70;87.00;;;;;;5036923;28;20018;-75
2022/01/12 05:37:03;;;;;;;26.85;10.43;;;9.70;86.80;;;;;;5068996;28;20800;-75
2022/01/12 05:39:28;;;;;;;24.17;10.13;;;9.70;86.60;;;;;;5068873;28;20025;-75
2022/01/12 05:41:54;;;;;;;21.25;9.48;;;9.70;86.90;;;;;;5042339;28;20032;-74
2022/01/12 05:44:22;;;;;;;35.22;11.13;;;9.70;86.80;;;;;;5075605;28;20090;-75
2022/01/12 05:46:48;;;;;;;26.23;10.52;;;9.70;86.90;;;;;;5076688;28;20043;-75
2022/01/12 05:49:35;;;;;;;25.55;9.80;;;9.60;87.00;;;;;;5078497;28;20017;-75
2022/01/12 05:52:02;;;;;;;19.55;7.75;;;9.70;87.20;;;;;;5035475;28;20022;-75
2022/01/12 05:54:28;;;;;;;16.10;7.32;;;9.70;86.70;;;;;;5045748;28;20466;-76
2022/01/12 05:56:53;;;;;;;19.50;8.52;;;9.50;87.20;;;;;;5037789;28;20037;-78
2022/01/12 05:59:19;;;;;;;23.15;10.02;;;9.50;87.40;;;;;;5036445;28;20048;-79
2022/01/12 06:01:44;;;;;;;19.08;8.50;;;9.50;87.30;;;;;;5036252;28;20037;-75
2022/01/12 06:04:10;;;;;;;21.20;9.32;;;9.50;86.90;;;;;;5036323;28;20025;-77
2022/01/12 06:06:36;;;;;;;22.15;9.00;;;9.60;87.10;;;;;;5068324;28;20041;-75
2022/01/12 06:09:02;;;;;;;17.98;8.60;;;9.60;87.00;;;;;;5050366;28;20032;-77
2022/01/12 06:11:28;;;;;;;16.65;8.02;;;9.60;86.60;;;;;;5050428;28;20037;-78
2022/01/12 06:13:55;;;;;;;19.13;8.35;;;9.50;86.80;;;;;;5068087;28;20430;-75
2022/01/12 06:16:21;;;;;;;13.75;6.72;;;9.50;87.20;;;;;;5067889;28;20064;-77
2022/01/12 06:18:46;;;;;;;13.73;6.50;;;9.40;86.90;;;;;;5051408;28;20408;-74
2022/01/12 06:21:12;;;;;;;21.00;7.63;;;9.40;87.00;;;;;;5035858;28;20652;-74
2022/01/12 06:23:38;;;;;;;14.63;6.13;;;9.30;86.70;;;;;;5053441;28;20023;-76
2022/01/12 06:26:04;;;;;;;15.75;5.78;;;9.30;87.00;;;;;;5054025;28;20126;-76
2022/01/12 06:31:10;;;;;;;14.63;7.03;;;9.40;86.90;;;;;;5055825;28;20017;-76
2022/01/12 06:33:40;;;;;;;13.15;6.28;;;9.40;87.00;;;;;;5045788;28;20025;-76
2022/01/12 06:36:06;;;;;;;;;;;9.40;86.70;;;;;;5051368;28;20479;-77
2022/01/12 06:38:32;;;;;;;16.17;5.90;;;9.40;86.60;;;;;;5048967;28;19990;-77
2022/01/12 06:40:58;;;;;;;14.50;5.72;;;9.40;87.10;;;;;;5054991;28;20013;-77
2022/01/12 06:43:24;;;;;;;13.38;5.57;;;9.30;86.40;;;;;;5063046;28;20031;-80
2022/01/12 06:45:49;;;;;;;13.63;6.68;;;9.30;86.60;;;;;;5035337;28;20022;-78
2022/01/12 06:48:15;;;;;;;13.77;6.38;;;9.30;86.70;;;;;;5045919;28;20048;-81
2022/01/12 06:50:41;;;;;;;15.43;7.72;;;9.30;87.00;;;;;;5040907;28;20398;-79
2022/01/12 06:53:06;;;;;;;15.02;6.43;;;9.30;86.80;;;;;;5035476;28;20127;-79
2022/01/12 06:55:32;;;;;;;10.75;8.05;;;9.30;86.90;;;;;;5035569;28;20028;-79
2022/01/12 06:57:57;;;;;;;18.20;8.50;;;9.40;86.40;;;;;;5036350;28;20036;-81
2022/01/12 07:00:23;;;;;;;18.02;8.10;;;9.20;86.80;;;;;;5047992;28;20033;-80
2022/01/12 07:02:49;;;;;;;12.60;6.53;;;9.20;87.00;;;;;;5053440;28;20454;-82
2022/01/12 07:05:14;;;;;;;10.82;5.22;;;9.10;86.30;;;;;;5055874;28;20037;-82
2022/01/12 07:07:40;;;;;;;11.48;5.82;;;9.10;86.50;;;;;;5052059;28;20043;-81
2022/01/12 07:10:07;;;;;;;12.65;4.68;;;9.10;86.60;;;;;;5053973;28;20029;-81
2022/01/12 07:12:32;;;;;;;8.38;4.32;;;9.00;86.50;;;;;;5034362;28;20139;-81
2022/01/12 07:14:58;;;;;;;8.43;4.60;;;9.00;86.30;;;;;;5034512;28;20030;-81
2022/01/12 07:17:24;;;;;;;8.07;4.55;;;9.00;86.30;;;;;;5034912;28;20112;-81
2022/01/12 07:19:49;;;;;;;10.02;4.57;;;8.90;86.40;;;;;;5033858;28;20037;-81
2022/01/12 07:22:15;;;;;;;12.52;6.30;;;8.80;86.50;;;;;;5050488;28;20043;-80
2022/01/12 07:24:40;;;;;;;14.20;6.05;;;8.90;86.80;;;;;;5034750;28;20033;-81
2022/01/12 07:27:07;;;;;;;8.63;4.50;;;8.90;86.80;;;;;;5067308;28;20032;-79
2022/01/12 07:29:33;;;;;;;8.20;5.20;;;8.90;86.30;;;;;;5033981;28;20049;-81
2022/01/12 07:32:00;;;;;;;10.57;5.38;;;9.00;86.50;;;;;;5034392;28;20053;-78
2022/01/12 07:34:25;;;;;;;12.00;6.70;;;9.10;86.40;;;;;;5045527;28;20029;-81
2022/01/12 07:36:51;;;;;;;10.38;5.53;;;9.20;85.90;;;;;;5034559;28;20030;-81
2022/01/12 07:39:17;;;;;;;9.13;5.82;;;9.20;86.00;;;;;;5035586;28;20709;-80
2022/01/12 07:41:42;;;;;;;12.05;5.63;;;9.20;85.80;;;;;;5044194;28;20071;-80
2022/01/12 07:44:08;;;;;;;7.32;4.75;;;9.00;85.90;;;;;;5059693;28;20025;-79
2022/01/12 07:46:34;;;;;;;8.52;4.82;;;9.00;86.10;;;;;;5032829;28;20063;-87
2022/01/12 07:49:00;;;;;;;12.32;5.07;;;8.90;86.10;;;;;;5033055;28;20040;-77
2022/01/12 07:51:25;;;;;;;9.25;5.18;;;8.90;86.10;;;;;;5051265;28;20082;-89
2022/01/12 07:53:51;;;;;;;10.02;5.75;;;8.90;86.30;;;;;;5053323;28;20460;-85
2022/01/12 07:56:17;;;;;;;8.48;4.50;;;8.90;86.00;;;;;;5051658;28;20133;-85
2022/01/12 07:58:42;;;;;;;19.77;12.95;;;8.90;86.00;;;;;;5057500;28;20029;-87
2022/01/12 08:01:08;;;;;;;13.18;8.23;;;8.90;86.00;;;;;;5035622;28;20124;-81
2022/01/12 08:03:34;;;;;;;16.30;12.13;;;9.00;86.10;;;;;;5048496;28;20117;-84
2022/01/12 08:06:00;;;;;;;11.43;5.97;;;9.10;85.90;;;;;;5054365;28;20082;-84
2022/01/12 08:08:26;;;;;;;11.25;5.65;;;9.20;85.50;;;;;;5054345;28;20040;-84
2022/01/12 08:10:51;;;;;;;13.60;8.02;;;9.20;85.60;;;;;;5041224;28;20041;-83
2022/01/12 08:13:17;;;;;;;9.07;5.78;;;9.20;85.40;;;;;;5056352;28;20036;-84
2022/01/12 08:15:43;;;;;;;10.88;6.07;;;9.20;85.10;;;;;;5068082;28;20567;-85
2022/01/12 08:18:08;;;;;;;10.30;6.15;;;9.20;85.40;;;;;;5036462;28;20029;-84
2022/01/12 08:20:34;;;;;;;11.38;5.82;;;9.20;85.30;;;;;;5033009;28;20029;-84
2022/01/12 08:23:00;;;;;;;11.70;5.82;;;9.10;85.20;;;;;;5034201;28;20018;-86
2022/01/12 08:25:26;;;;;;;10.32;5.55;;;9.10;85.60;;;;;;5034938;28;20092;-84
2022/01/12 08:27:52;;;;;;;9.68;4.78;;;9.00;85.30;;;;;;5048097;28;20514;-84
2022/01/12 08:30:21;;;;;;;10.35;4.97;;;9.00;85.40;;;;;;5034096;28;20041;-84
2022/01/12 08:32:49;;;;;;;9.82;5.28;;;8.90;85.90;;;;;;5037625;28;20052;-85
2022/01/12 08:35:16;;;;;;;10.57;7.45;;;8.70;86.40;;;;;;5052342;28;20521;-84
2022/01/12 08:37:43;;;;;;;9.35;4.60;;;8.60;86.50;;;;;;5055912;28;20502;-84
2022/01/12 08:40:11;;;;;;;11.88;7.10;;;8.70;86.20;;;;;;5055760;28;20025;-84
2022/01/12 08:42:37;;;;;;;13.85;7.43;;;8.70;86.40;;;;;;5054128;28;20025;-84
2022/01/12 08:45:04;;;;;;;8.40;5.20;;;8.70;86.50;;;;;;5055336;28;20044;-84
2022/01/12 08:47:30;;;;;;;12.77;6.55;;;8.80;86.20;;;;;;5053294;28;20017;-85
2022/01/12 08:49:56;;;;;;;10.32;5.85;;;8.90;86.10;;;;;;5055400;28;20074;-85
2022/01/12 08:52:28;;;;;;;11.50;5.75;;;9.00;86.10;;;;;;5055449;28;20017;-86
2022/01/12 08:54:54;;;;;;;7.80;4.82;;;9.00;85.40;;;;;;5045191;28;20459;-86
2022/01/12 08:57:20;;;;;;;10.10;5.10;;;9.00;85.00;;;;;;5054867;28;20343;-84
2022/01/12 08:59:45;;;;;;;10.05;5.22;;;8.90;85.20;;;;;;5052804;28;20029;-84
2022/01/12 09:02:14;;;;;;;11.10;5.57;;;8.80;85.50;;;;;;5053586;28;20040;-86
2022/01/12 09:04:41;;;;;;;9.90;5.72;;;8.90;85.80;;;;;;5054033;28;20029;-84
2022/01/12 09:07:08;;;;;;;12.68;5.80;;;8.80;85.20;;;;;;5047777;28;20029;-85
2022/01/12 09:09:33;;;;;;;13.48;6.20;;;8.90;86.10;;;;;;5055204;28;20075;-86
2022/01/12 09:11:59;;;;;;;14.90;8.98;;;9.00;86.00;;;;;;5050745;28;20731;-85
2022/01/12 09:14:25;;;;;;;10.73;6.68;;;8.90;85.80;;;;;;5052960;28;20105;-85
2022/01/12 09:16:55;;;;;;;15.93;8.32;;;8.90;85.60;;;;;;5054185;28;20033;-85
2022/01/12 09:19:22;;;;;;;10.13;6.05;;;9.00;85.60;;;;;;5051027;28;20032;-85
2022/01/12 09:21:48;;;;;;;11.63;6.00;;;9.00;85.70;;;;;;5054885;28;20036;-85
2022/01/12 09:24:15;;;;;;;10.93;5.75;;;9.00;85.50;;;;;;5054369;28;20036;-84
2022/01/12 09:26:41;;;;;;;8.88;4.70;;;8.90;85.40;;;;;;5051630;28;20040;-85
2022/01/12 09:29:06;;;;;;;9.13;4.82;;;9.00;85.60;;;;;;5054920;28;20044;-84
2022/01/12 09:31:32;;;;;;;8.40;5.30;;;9.00;85.30;;;;;;5053747;28;20021;-85
2022/01/12 09:33:58;;;;;;;13.07;6.25;;;8.90;85.20;;;;;;5054967;28;20017;-86
2022/01/12 09:36:24;;;;;;;12.75;7.05;;;8.90;85.30;;;;;;5055496;28;20017;-86
2022/01/12 09:38:50;;;;;;;13.35;7.55;;;8.70;85.50;;;;;;5055063;28;20025;-84
2022/01/12 09:41:15;;;;;;;8.38;4.15;;;8.80;85.90;;;;;;5049272;28;20072;-83
2022/01/12 09:43:42;;;;;;;6.18;3.58;;;8.90;85.70;;;;;;5072966;28;20036;-84
2022/01/12 09:46:09;;;;;;;6.43;4.07;;;9.10;85.40;;;;;;5075127;28;20065;-83
2022/01/12 09:48:36;;;;;;;8.38;4.30;;;9.10;84.90;;;;;;5074864;28;20468;-84
2022/01/12 09:51:06;;;;;;;4.90;2.97;;;9.00;84.80;;;;;;5053116;28;20025;-81
2022/01/12 09:53:34;;;;;;;6.88;4.43;;;9.00;85.10;;;;;;5049316;28;20024;-84
2022/01/12 09:56:03;;;;;;;8.68;5.85;;;9.00;84.70;;;;;;5052984;28;20040;-81
2022/01/12 09:58:35;;;;;;;11.63;6.15;;;8.90;85.40;;;;;;5055157;28;20132;-79
2022/01/12 10:01:03;;;;;;;11.35;5.20;;;8.90;85.60;;;;;;5053412;28;20052;-80
2022/01/12 10:03:29;;;;;;;8.95;4.03;;;9.00;85.20;;;;;;5054238;28;20017;-80
2022/01/12 10:06:35;;;;;;;10.75;5.20;;;9.10;85.20;;;;;;5057259;28;20404;-84
2022/01/12 10:09:00;;;;;;;9.85;6.28;;;8.90;84.80;;;;;;5056770;28;20063;-80
2022/01/12 10:11:26;;;;;;;10.00;4.70;;;8.80;85.60;;;;;;5071347;28;20029;-83
2022/01/12 10:13:59;;;;;;;12.75;6.32;;;9.10;85.70;;;;;;5063734;28;20029;-82
2022/01/12 10:16:26;;;;;;;7.93;4.53;;;9.30;85.30;;;;;;5051031;28;20025;-83
2022/01/12 10:19:00;;;;;;;7.25;3.45;;;9.50;84.80;;;;;;5066014;28;20079;-83
2022/01/12 10:21:31;;;;;;;7.25;4.40;;;9.60;84.20;;;;;;5069551;28;20100;-83
2022/01/12 10:24:01;;;;;;;15.70;7.80;;;9.60;84.10;;;;;;5069002;28;20029;-83
2022/01/12 10:26:28;;;;;;;8.25;5.25;;;9.70;84.10;;;;;;5070696;28;20028;-85
2022/01/12 10:29:02;;;;;;;11.30;5.63;;;9.80;83.90;;;;;;5065310;28;20028;-85
2022/01/12 10:31:28;;;;;;;9.32;5.53;;;9.80;83.80;;;;;;5050932;28;20033;-85
2022/01/12 10:34:02;;;;;;;19.67;8.27;;;9.90;83.50;;;;;;5050414;28;20026;-85
2022/01/12 10:36:36;;;;;;;8.77;4.10;;;10.00;83.50;;;;;;5050693;28;20028;-85
2022/01/12 10:39:14;;;;;;;12.55;5.68;;;9.90;82.60;;;;;;5061669;28;20033;-88
2022/01/12 10:42:02;;;;;;;21.92;9.30;;;9.70;83.80;;;;;;5066869;28;20029;-85
2022/01/12 10:44:31;;;;;;;8.98;5.50;;;9.80;83.90;;;;;;5064811;28;20029;-86
2022/01/12 10:47:04;;;;;;;9.95;4.68;;;10.00;83.70;;;;;;5065698;28;20032;-86
2022/01/12 10:49:30;;;;;;;20.45;10.57;;;9.90;83.70;;;;;;5069918;28;20024;-86
2022/01/12 10:51:57;;;;;;;9.43;5.22;;;9.90;83.20;;;;;;5068240;28;20028;-85
2022/01/12 10:54:23;;;;;;;7.80;4.72;;;9.80;83.70;;;;;;5064375;28;20035;-86
2022/01/12 10:56:49;;;;;;;9.75;5.00;;;9.90;83.90;;;;;;5065860;28;20039;-86
2022/01/12 10:59:19;;;;;;;13.95;9.60;;;10.00;83.90;;;;;;5070009;28;20021;-85
2022/01/12 11:01:45;;;;;;;;;;;9.90;82.70;;;;;;5060462;28;20039;-87
2022/01/12 11:04:11;;;;;;;18.00;10.15;;;10.00;83.70;;;;;;5091641;28;19908;-89
2022/01/12 11:06:37;;;;;;;14.93;11.40;;;9.90;83.20;;;;;;5089352;28;20021;-78
2022/01/12 11:09:04;;;;;;;8.02;5.50;;;10.10;84.00;;;;;;5051132;28;20544;-80
2022/01/12 11:11:30;;;;;;;8.43;6.05;;;10.20;83.30;;;;;;5053971;28;20032;-81
2022/01/12 11:13:55;;;;;;;8.73;4.43;;;10.20;83.10;;;;;;5058973;28;20033;-79
2022/01/12 11:16:26;;;;;;;7.90;4.70;;;10.30;83.30;;;;;;5058380;28;20037;-80
2022/01/12 11:18:52;;;;;;;;;;;10.30;83.50;;;;;;5048244;28;20033;-83
2022/01/12 11:21:20;;;;;;;8.57;4.03;;;10.50;82.80;;;;;;5047823;28;19915;-79
2022/01/12 11:23:47;;;;;;;6.70;3.45;;;10.70;82.60;;;;;;5044310;28;20121;-79
2022/01/12 11:26:17;;;;;;;6.07;3.88;;;10.60;81.70;;;;;;5048896;28;20044;-82
2022/01/12 11:28:44;;;;;;;7.65;4.03;;;10.60;82.20;;;;;;5054816;28;20391;-81
2022/01/12 11:31:11;;;;;;;5.25;3.70;;;10.50;82.70;;;;;;5044874;28;20021;-82
2022/01/12 11:33:43;;;;;;;6.55;5.13;;;10.50;82.10;;;;;;5042316;28;20017;-83
2022/01/12 11:36:14;;;;;;;5.97;4.82;;;10.70;82.60;;;;;;5042884;28;20025;-79
2022/01/12 11:38:40;;;;;;;6.72;3.80;;;10.70;82.30;;;;;;5050480;28;20017;-81
2022/01/12 11:41:20;;;;;;;6.90;3.50;;;10.60;82.40;;;;;;5043934;28;20037;-82
2022/01/12 11:43:50;;;;;;;7.05;4.00;;;10.70;81.60;;;;;;5046244;28;20029;-84
2022/01/12 11:46:22;;;;;;;9.05;3.85;;;10.70;81.60;;;;;;5041025;28;20522;-76
2022/01/12 11:48:51;;;;;;;6.95;3.22;;;10.60;82.20;;;;;;5040726;28;20025;-76
2022/01/12 11:51:19;;;;;;;6.30;3.55;;;10.70;82.40;;;;;;5044372;28;20029;-76
2022/01/12 11:53:55;;;;;;;6.60;3.83;;;10.80;82.50;;;;;;5049115;28;20025;-78
2022/01/12 11:56:24;;;;;;;6.85;3.78;;;10.80;81.60;;;;;;5049069;28;20047;-81
2022/01/12 11:58:54;;;;;;;7.73;4.53;;;10.80;81.20;;;;;;5048731;28;20147;-82
2022/01/12 12:01:22;;;;;;;8.50;4.40;;;10.80;81.20;;;;;;5050958;28;20057;-79
2022/01/12 12:03:59;;;;;;;6.00;3.70;;;10.90;81.40;;;;;;5047815;28;20033;-78
2022/01/12 12:06:25;;;;;;;6.70;4.40;;;11.00;81.20;;;;;;5046476;28;20442;-77
2022/01/12 12:08:57;;;;;;;10.57;5.57;;;11.00;81.60;;;;;;5046142;28;20087;-79
2022/01/12 12:11:26;;;;;;;9.07;4.85;;;11.10;81.00;;;;;;5049225;28;20071;-77
2022/01/12 12:13:51;;;;;;;7.63;3.72;;;11.10;81.00;;;;;;5045371;28;20033;-77
2022/01/12 12:16:17;;;;;;;6.55;3.72;;;11.10;80.80;;;;;;5049932;28;20179;-79
2022/01/12 12:18:44;;;;;;;10.57;6.90;;;11.10;81.00;;;;;;5047803;28;20057;-78
2022/01/12 12:21:09;;;;;;;6.80;4.35;;;11.20;81.20;;;;;;5053394;28;20677;-80
2022/01/12 12:23:36;;;;;;;9.85;7.00;;;11.00;81.50;;;;;;5054534;28;20087;-77
2022/01/12 12:26:08;;;;;;;8.52;6.50;;;11.10;81.00;;;;;;5052896;28;20052;-82
2022/01/12 12:28:34;;;;;;;6.57;4.68;;;10.80;82.00;;;;;;5042118;28;20039;-77
2022/01/12 12:31:00;;;;;;;6.45;4.20;;;11.00;82.10;;;;;;5047439;28;20021;-79
2022/01/12 12:33:25;;;;;;;7.63;4.85;;;11.00;81.80;;;;;;5042160;28;20481;-77
2022/01/12 12:35:51;;;;;;;5.97;3.80;;;11.10;82.10;;;;;;5055420;28;20075;-76
2022/01/12 12:38:20;;;;;;;6.28;3.53;;;11.10;81.30;;;;;;5055568;28;20025;-76
2022/01/12 12:40:49;;;;;;;6.15;3.92;;;11.20;81.20;;;;;;5055975;28;20017;-79
2022/01/12 12:43:26;;;;;;;7.45;4.80;;;11.20;81.40;;;;;;5057068;28;20114;-77
2022/01/12 12:45:54;;;;;;;6.57;4.13;;;11.30;81.10;;;;;;5054400;28;20101;-77
2022/01/12 12:48:22;;;;;;;5.72;4.07;;;11.50;80.50;;;;;;5053348;28;20398;-77
2022/01/12 12:50:58;;;;;;;6.35;3.63;;;11.30;81.40;;;;;;5056007;28;20038;-77
2022/01/12 12:53:31;;;;;;;7.68;4.57;;;11.50;80.80;;;;;;5051970;28;20029;-77
2022/01/12 12:55:57;;;;;;;8.43;4.85;;;11.50;80.40;;;;;;5055367;28;20048;-77
2022/01/12 12:58:29;;;;;;;6.75;4.60;;;11.60;80.80;;;;;;5053434;28;20033;-75
2022/01/12 13:01:09;;;;;;;6.53;4.15;;;11.80;80.40;;;;;;5053969;28;20059;-76
2022/01/12 13:03:36;;;;;;;7.80;5.22;;;11.80;80.80;;;;;;5051933;28;20402;-77
2022/01/12 13:06:02;;;;;;;8.20;4.45;;;11.90;80.40;;;;;;5053694;28;20029;-77
2022/01/12 13:08:28;;;;;;;7.50;4.38;;;11.80;80.50;;;;;;5037320;28;20577;-77
2022/01/12 13:10:54;;;;;;;7.70;4.28;;;11.90;80.40;;;;;;5035066;28;20080;-77
2022/01/12 13:13:20;;;;;;;8.27;4.65;;;11.70;79.40;;;;;;5034374;28;20037;-77
2022/01/12 13:15:46;;;;;;;8.25;4.70;;;11.80;80.80;;;;;;5033941;28;20025;-77
2022/01/12 13:18:23;;;;;;;11.63;6.68;;;11.80;80.60;;;;;;5032769;28;20041;-77
2022/01/12 13:21:09;;;;;;;12.88;7.18;;;11.70;80.40;;;;;;5035228;28;20051;-77
2022/01/12 13:23:44;;;;;;;11.13;7.15;;;12.00;80.20;;;;;;5035428;28;20487;-76
2022/01/12 13:26:12;;;;;;;9.77;5.70;;;12.00;79.70;;;;;;5035205;28;20373;-76
2022/01/12 13:28:40;;;;;;;9.07;6.30;;;11.90;79.10;;;;;;5034999;28;20088;-77
2022/01/12 13:31:13;;;;;;;9.25;5.05;;;11.80;79.70;;;;;;5033263;28;20022;-76
2022/01/12 13:33:45;;;;;;;9.75;4.75;;;11.80;79.50;;;;;;5034281;28;20029;-76
2022/01/12 13:36:12;;;;;;;8.35;4.82;;;12.00;79.90;;;;;;5045838;28;20174;-76
2022/01/12 13:38:38;;;;;;;14.73;9.48;;;12.20;79.50;;;;;;5039676;28;20025;-75
2022/01/12 13:41:12;;;;;;;16.25;8.70;;;12.30;79.00;;;;;;5034916;28;20079;-76
2022/01/12 13:43:41;;;;;;;10.50;6.40;;;12.30;79.20;;;;;;5049720;28;20032;-76
2022/01/12 13:46:18;;;;;;;10.60;6.75;;;12.10;79.10;;;;;;5033528;28;20495;-76
2022/01/12 13:52:06;;;;;;;11.40;6.13;;;11.90;79.90;;;;;;5038222;28;20373;-76
2022/01/12 13:54:41;;;;;;;11.80;7.47;;;12.10;80.20;;;;;;5046202;28;20029;-76
2022/01/12 13:57:09;;;;;;;9.45;5.53;;;12.20;80.30;;;;;;5043691;28;20057;-76
2022/01/12 13:59:49;;;;;;;7.95;4.90;;;12.20;79.80;;;;;;5042866;28;20535;-76
2022/01/12 14:02:18;;;;;;;7.78;5.25;;;12.30;80.20;;;;;;5043279;28;20036;-76
2022/01/12 14:05:26;;;;;;;7.72;4.50;;;12.30;80.00;;;;;;5043081;28;20434;-76